Record high temperature 52.3°C Record low temperature -14.8°C Record high gust 66.0 kts Record high average 44.0 kts Record daily rain 221.2 mm Record low windchill -23.5°C Record high barometer 1099.9 hPa Record low barometer 815.2 hPa
Daily high pressure 1017.8 hPa Daily low pressure 1015.2 hPa Daily low windchill 22.2°C Daily high heat index 24.6°C Daily high gust speed 12.0 kts SSE Daily high average speed 11.7 kts SSE
Potts Point Sydney
LAST READING AT TIME: 18:30 DATE: 25 November 2017, time of next update: 18:40
Current Weatherovercast/Clear Current Temperature 22.2°C (72.0°F) (Heat Index 22.2°C ), Apparent temp 21.3°C , Apparent temp solar 21.3°C
Maximum Temperature (since 9am)24.6°C at: 09:44 Minimum Temperature (since 9am)22.2°C at: 18:26
Average windspeed (ten minute)2.4 kts (4.4 kmh) Wind Direction (ten minute)ESE (116°)
Heat Index 22.2°C Maximum Gust (last hour)11.7 kts (21.6 kmh) at: 18:11
Maximum Gust (since 9am)12.0 kts (22.2 kmh) at: 15:07 Maximum 1 minute average (since 9am)11.7 kts (21.6 kmh) at: 15:08
Rainfall (last hour)0.0 mm Rainfall (since 9am)0.0 mm (0.00 in.)---
Rainfall This month 41.6 mm (1.64 in.) Rainfall To date this year 699.3 mm (27.53 in.)
Maximum rain per minute (last hour)0.0 mm/min Maximum rain per hour (last 6 hours)0.0 mm/hour
Yesterdays rainfall 0.0 mm DewPoint 18.6°C (Wet Bulb :19.9°C )
Humidity 80 %, Humidex 28.7°C Barometer corrected to msl1015.3 hPa
Pressure change 0.0 hPa (last hour) Trend (last hour)STEADY
Pressure change (last 12 hours)-1.7 hPa Pressure change (last 6 hours)-1.9 hPa
Current Indoor Temp. 27.3°C
Current Indoor Hum. 64%
Current solar 0 W/mē Current UV0.0
Maximum solar (since 9am) 0 W/mē Minimum solar (since 9am)1000 W/mē
Current 00:00 hours of sunshine today, current sky: overcast
Sunshine hours for the year: 1066:05 hrs Sunshine hours for the month: 15:13 hrs
Current evapotranspiration rate 0.5 mm per day. Yesterday's reading 0.7

This page is updated from recent data collected by a WS2310 weather station Use the Reload or Refresh facility on your browser to retrieve the latest data.


Animated web cam image


Weather report/warning/Metars

Sydney Airport, Australia (YSSY) 33-57S 151-11E 3M
Nov 25, 2017 - 02:00 AM EST / 2017.11.25 0700 UTC
Wind: from the ENE (060 degrees) at 21 MPH (18 KT):0
Visibility: greater than 7 mile(s):0
Sky conditions: mostly clear
Temperature: 75 F (24 C)
Dew Point: 64 F (18 C)
Relative Humidity: 69%
Pressure (altimeter): 29.97 in. Hg (1015 hPa)
ob: YSSY 250700Z 06018KT 9999 FEW018 24/18 Q1015 NOSIG
cycle: 7
Auckland Airport, New Zealand (NZAA) 37-01S 174-48E 6M
Nov 25, 2017 - 02:00 AM EST / 2017.11.25 0700 UTC
Wind: from the N (010 degrees) at 8 MPH (7 KT) (direction variable):0
Visibility: greater than 7 mile(s):0
Sky conditions: overcast
Temperature: 66 F (19 C)
Dew Point: 59 F (15 C)
Relative Humidity: 77%
Pressure (altimeter): 30.27 in. Hg (1025 hPa)
ob: NZAA 250700Z AUTO 01007KT 340V040 9999 SCT022/// BKN027/// OVC036/// 19/15 Q1025 NOSIG
cycle: 7